sensor_id;sensor_type;location;lat;lon;timestamp;pressure;altitude;pressure_sealevel;temperature
53667;BMP280;39568;51.026;5.468;2022-07-21T00:00:35;101122.50;;;18.04
53667;BMP280;39568;51.026;5.468;2022-07-21T00:03:03;101123.03;;;18.02
53667;BMP280;39568;51.026;5.468;2022-07-21T00:05:32;101120.16;;;18.00
53667;BMP280;39568;51.026;5.468;2022-07-21T00:08:00;101129.09;;;17.95
53667;BMP280;39568;51.026;5.468;2022-07-21T00:10:28;101133.38;;;17.91
53667;BMP280;39568;51.026;5.468;2022-07-21T00:12:56;101115.69;;;17.82
53667;BMP280;39568;51.026;5.468;2022-07-21T00:15:25;101111.44;;;17.87
53667;BMP280;39568;51.026;5.468;2022-07-21T00:17:52;101107.13;;;17.84
53667;BMP280;39568;51.026;5.468;2022-07-21T00:20:21;101106.00;;;17.79
53667;BMP280;39568;51.026;5.468;2022-07-21T00:22:49;101102.41;;;17.77
53667;BMP280;39568;51.026;5.468;2022-07-21T00:25:16;101101.84;;;17.78
53667;BMP280;39568;51.026;5.468;2022-07-21T00:27:43;101095.69;;;17.70
53667;BMP280;39568;51.026;5.468;2022-07-21T00:30:15;101098.50;;;17.64
53667;BMP280;39568;51.026;5.468;2022-07-21T00:32:42;101097.88;;;17.72
53667;BMP280;39568;51.026;5.468;2022-07-21T00:35:14;101087.50;;;17.76
53667;BMP280;39568;51.026;5.468;2022-07-21T00:37:42;101082.97;;;17.70
53667;BMP280;39568;51.026;5.468;2022-07-21T00:40:11;101081.59;;;17.77
53667;BMP280;39568;51.026;5.468;2022-07-21T00:42:41;101079.03;;;17.72
53667;BMP280;39568;51.026;5.468;2022-07-21T00:45:09;101078.31;;;17.71
53667;BMP280;39568;51.026;5.468;2022-07-21T00:47:37;101085.44;;;17.68
53667;BMP280;39568;51.026;5.468;2022-07-21T00:50:07;101084.44;;;17.72
53667;BMP280;39568;51.026;5.468;2022-07-21T00:52:34;101088.75;;;17.75
53667;BMP280;39568;51.026;5.468;2022-07-21T00:55:01;101092.66;;;17.73
53667;BMP280;39568;51.026;5.468;2022-07-21T00:57:35;101092.19;;;17.83
53667;BMP280;39568;51.026;5.468;2022-07-21T01:00:03;101093.91;;;17.72
53667;BMP280;39568;51.026;5.468;2022-07-21T01:02:30;101089.25;;;17.73
53667;BMP280;39568;51.026;5.468;2022-07-21T01:05:00;101084.59;;;17.73
53667;BMP280;39568;51.026;5.468;2022-07-21T01:07:27;101084.44;;;17.72
53667;BMP280;39568;51.026;5.468;2022-07-21T01:09:55;101070.47;;;17.81
53667;BMP280;39568;51.026;5.468;2022-07-21T01:12:22;101073.34;;;17.83
53667;BMP280;39568;51.026;5.468;2022-07-21T01:14:50;101074.81;;;17.84
53667;BMP280;39568;51.026;5.468;2022-07-21T01:17:17;101076.91;;;17.78
53667;BMP280;39568;51.026;5.468;2022-07-21T01:19:45;101079.66;;;17.85
53667;BMP280;39568;51.026;5.468;2022-07-21T01:22:14;101084.84;;;17.83
53667;BMP280;39568;51.026;5.468;2022-07-21T01:24:41;101081.25;;;17.81
53667;BMP280;39568;51.026;5.468;2022-07-21T01:27:09;101087.34;;;17.81
53667;BMP280;39568;51.026;5.468;2022-07-21T01:29:36;101093.28;;;17.80
53667;BMP280;39568;51.026;5.468;2022-07-21T01:32:04;101095.75;;;17.78
53667;BMP280;39568;51.026;5.468;2022-07-21T01:34:31;101098.31;;;17.83
53667;BMP280;39568;51.026;5.468;2022-07-21T01:37:01;101091.44;;;17.75
53667;BMP280;39568;51.026;5.468;2022-07-21T01:39:34;101095.75;;;17.78
53667;BMP280;39568;51.026;5.468;2022-07-21T01:42:19;101099.13;;;17.70
53667;BMP280;39568;51.026;5.468;2022-07-21T01:44:45;101100.13;;;17.88
53667;BMP280;39568;51.026;5.468;2022-07-21T01:47:12;101092.59;;;17.87
53667;BMP280;39568;51.026;5.468;2022-07-21T01:49:40;101093.00;;;17.91
53667;BMP280;39568;51.026;5.468;2022-07-21T01:52:07;101090.19;;;18.04
53667;BMP280;39568;51.026;5.468;2022-07-21T01:54:35;101080.88;;;18.05
53667;BMP280;39568;51.026;5.468;2022-07-21T01:57:01;101084.22;;;17.98
53667;BMP280;39568;51.026;5.468;2022-07-21T01:59:29;101084.22;;;17.98
53667;BMP280;39568;51.026;5.468;2022-07-21T02:01:58;101080.69;;;18.03
53667;BMP280;39568;51.026;5.468;2022-07-21T02:04:27;101075.88;;;18.09
53667;BMP280;39568;51.026;5.468;2022-07-21T02:06:55;101074.22;;;18.06
53667;BMP280;39568;51.026;5.468;2022-07-21T02:09:22;101064.72;;;18.05
53667;BMP280;39568;51.026;5.468;2022-07-21T02:11:50;101062.34;;;18.01
53667;BMP280;39568;51.026;5.468;2022-07-21T02:14:18;101061.81;;;17.95
53667;BMP280;39568;51.026;5.468;2022-07-21T02:16:52;101060.09;;;17.85
53667;BMP280;39568;51.026;5.468;2022-07-21T02:19:27;101065.28;;;17.83
53667;BMP280;39568;51.026;5.468;2022-07-21T02:21:59;101059.72;;;17.81
53667;BMP280;39568;51.026;5.468;2022-07-21T02:24:26;101064.38;;;17.80
53667;BMP280;39568;51.026;5.468;2022-07-21T02:26:56;101058.28;;;17.80
53667;BMP280;39568;51.026;5.468;2022-07-21T02:29:23;101058.91;;;17.72
53667;BMP280;39568;51.026;5.468;2022-07-21T02:31:49;101054.59;;;17.69
53667;BMP280;39568;51.026;5.468;2022-07-21T02:34:16;101062.06;;;17.84
53667;BMP280;39568;51.026;5.468;2022-07-21T02:36:44;101066.09;;;17.70
53667;BMP280;39568;51.026;5.468;2022-07-21T02:39:14;101075.84;;;17.81
53667;BMP280;39568;51.026;5.468;2022-07-21T02:41:44;101073.34;;;17.83
53667;BMP280;39568;51.026;5.468;2022-07-21T02:44:13;101077.69;;;17.86
53667;BMP280;39568;51.026;5.468;2022-07-21T02:46:46;101090.31;;;17.91
53667;BMP280;39568;51.026;5.468;2022-07-21T02:49:15;101077.69;;;17.86
53667;BMP280;39568;51.026;5.468;2022-07-21T02:51:49;101078.44;;;17.86
53667;BMP280;39568;51.026;5.468;2022-07-21T02:54:18;101082.16;;;17.83
53667;BMP280;39568;51.026;5.468;2022-07-21T02:56:51;101078.47;;;17.94
53667;BMP280;39568;51.026;5.468;2022-07-21T02:59:23;101077.78;;;18.01
53667;BMP280;39568;51.026;5.468;2022-07-21T03:01:50;101080.47;;;18.01
53667;BMP280;39568;51.026;5.468;2022-07-21T03:04:16;101080.31;;;17.99
53667;BMP280;39568;51.026;5.468;2022-07-21T03:06:43;101086.03;;;17.95
53667;BMP280;39568;51.026;5.468;2022-07-21T03:09:13;101086.88;;;17.90
53667;BMP280;39568;51.026;5.468;2022-07-21T03:11:39;101074.53;;;17.95
53667;BMP280;39568;51.026;5.468;2022-07-21T03:14:07;101069.19;;;18.02
53667;BMP280;39568;51.026;5.468;2022-07-21T03:16:35;101086.41;;;17.99
53667;BMP280;39568;51.026;5.468;2022-07-21T03:19:02;101069.53;;;17.99
53667;BMP280;39568;51.026;5.468;2022-07-21T03:21:29;101065.38;;;17.98
53667;BMP280;39568;51.026;5.468;2022-07-21T03:23:56;101070.38;;;17.94
53667;BMP280;39568;51.026;5.468;2022-07-21T03:26:22;101069.53;;;17.99
53667;BMP280;39568;51.026;5.468;2022-07-21T03:28:49;101062.09;;;17.92
53667;BMP280;39568;51.026;5.468;2022-07-21T03:31:15;101070.16;;;17.92
53667;BMP280;39568;51.026;5.468;2022-07-21T03:33:50;101067.34;;;17.97
53667;BMP280;39568;51.026;5.468;2022-07-21T03:36:17;101073.81;;;17.94
53667;BMP280;39568;51.026;5.468;2022-07-21T03:38:44;101073.47;;;17.98
53667;BMP280;39568;51.026;5.468;2022-07-21T03:41:11;101063.38;;;17.91
53667;BMP280;39568;51.026;5.468;2022-07-21T03:43:38;101064.63;;;17.90
53667;BMP280;39568;51.026;5.468;2022-07-21T03:46:04;101066.06;;;17.91
53667;BMP280;39568;51.026;5.468;2022-07-21T03:48:31;101074.69;;;17.97
53667;BMP280;39568;51.026;5.468;2022-07-21T03:50:59;101076.13;;;17.90
53667;BMP280;39568;51.026;5.468;2022-07-21T03:53:26;101073.59;;;17.92
53667;BMP280;39568;51.026;5.468;2022-07-21T03:55:54;101067.13;;;17.88
53667;BMP280;39568;51.026;5.468;2022-07-21T03:58:21;101061.22;;;17.97
53667;BMP280;39568;51.026;5.468;2022-07-21T04:00:48;101068.06;;;17.98
53667;BMP280;39568;51.026;5.468;2022-07-21T04:03:17;101058.38;;;17.95
53667;BMP280;39568;51.026;5.468;2022-07-21T04:05:44;101057.19;;;18.03
53667;BMP280;39568;51.026;5.468;2022-07-21T04:08:14;101060.25;;;18.07
53667;BMP280;39568;51.026;5.468;2022-07-21T04:10:42;101066.34;;;18.08
53667;BMP280;39568;51.026;5.468;2022-07-21T04:13:12;101052.50;;;18.04
53667;BMP280;39568;51.026;5.468;2022-07-21T04:15:39;101061.81;;;17.95
53667;BMP280;39568;51.026;5.468;2022-07-21T04:18:06;101064.31;;;18.01
53667;BMP280;39568;51.026;5.468;2022-07-21T04:20:34;101069.75;;;18.08
53667;BMP280;39568;51.026;5.468;2022-07-21T04:23:01;101064.00;;;18.12
53667;BMP280;39568;51.026;5.468;2022-07-21T04:25:32;101061.19;;;18.17
53667;BMP280;39568;51.026;5.468;2022-07-21T04:27:59;101072.38;;;18.01
53667;BMP280;39568;51.026;5.468;2022-07-21T04:30:25;101067.94;;;18.03
53667;BMP280;39568;51.026;5.468;2022-07-21T04:32:55;101072.00;;;17.97
53667;BMP280;39568;51.026;5.468;2022-07-21T04:35:31;101066.63;;;17.97
53667;BMP280;39568;51.026;5.468;2022-07-21T04:37:58;101068.13;;;18.05
53667;BMP280;39568;51.026;5.468;2022-07-21T04:40:25;101072.69;;;18.18
53667;BMP280;39568;51.026;5.468;2022-07-21T04:42:53;101068.47;;;18.02
53667;BMP280;39568;51.026;5.468;2022-07-21T04:45:19;101069.41;;;18.12
53667;BMP280;39568;51.026;5.468;2022-07-21T04:47:50;101068.91;;;18.21
53667;BMP280;39568;51.026;5.468;2022-07-21T04:50:19;101070.66;;;18.11
53667;BMP280;39568;51.026;5.468;2022-07-21T04:52:48;101069.41;;;18.12
53667;BMP280;39568;51.026;5.468;2022-07-21T04:55:16;101070.56;;;18.24
53667;BMP280;39568;51.026;5.468;2022-07-21T04:57:45;101066.59;;;18.25
53667;BMP280;39568;51.026;5.468;2022-07-21T05:00:17;101070.59;;;18.31
53667;BMP280;39568;51.026;5.468;2022-07-21T05:02:45;101066.47;;;18.30
53667;BMP280;39568;51.026;5.468;2022-07-21T05:05:14;101069.00;;;18.36
53667;BMP280;39568;51.026;5.468;2022-07-21T05:07:43;101080.50;;;18.36
53667;BMP280;39568;51.026;5.468;2022-07-21T05:10:11;101076.22;;;18.41
53667;BMP280;39568;51.026;5.468;2022-07-21T05:12:39;101082.84;;;18.40
53667;BMP280;39568;51.026;5.468;2022-07-21T05:15:09;101073.88;;;18.37
53667;BMP280;39568;51.026;5.468;2022-07-21T05:17:39;101076.72;;;18.39
53667;BMP280;39568;51.026;5.468;2022-07-21T05:20:07;101075.34;;;18.46
53667;BMP280;39568;51.026;5.468;2022-07-21T05:22:35;101070.44;;;18.37
53667;BMP280;39568;51.026;5.468;2022-07-21T05:25:05;101080.22;;;18.55
53667;BMP280;39568;51.026;5.468;2022-07-21T05:27:35;101085.97;;;18.52
53667;BMP280;39568;51.026;5.468;2022-07-21T05:30:02;101074.31;;;18.57
53667;BMP280;39568;51.026;5.468;2022-07-21T05:32:29;101079.13;;;18.58
53667;BMP280;39568;51.026;5.468;2022-07-21T05:34:57;101070.88;;;18.56
53667;BMP280;39568;51.026;5.468;2022-07-21T05:37:24;101076.81;;;18.62
53667;BMP280;39568;51.026;5.468;2022-07-21T05:39:52;101081.69;;;18.64
53667;BMP280;39568;51.026;5.468;2022-07-21T05:42:19;101075.78;;;18.65
53667;BMP280;39568;51.026;5.468;2022-07-21T05:44:48;101066.78;;;18.70
53667;BMP280;39568;51.026;5.468;2022-07-21T05:47:16;101066.25;;;18.64
53667;BMP280;39568;51.026;5.468;2022-07-21T05:49:43;101056.56;;;18.69
53667;BMP280;39568;51.026;5.468;2022-07-21T05:52:11;101063.78;;;18.81
53667;BMP280;39568;51.026;5.468;2022-07-21T05:54:38;101070.41;;;18.80
53667;BMP280;39568;51.026;5.468;2022-07-21T05:57:05;101068.06;;;18.77
53667;BMP280;39568;51.026;5.468;2022-07-21T05:59:31;101072.56;;;18.89
53667;BMP280;39568;51.026;5.468;2022-07-21T06:01:58;101079.63;;;18.92
53667;BMP280;39568;51.026;5.468;2022-07-21T06:04:25;101067.72;;;18.80
53667;BMP280;39568;51.026;5.468;2022-07-21T06:06:51;101080.00;;;18.96
53667;BMP280;39568;51.026;5.468;2022-07-21T06:09:20;101074.03;;;18.98
53667;BMP280;39568;51.026;5.468;2022-07-21T06:11:47;101091.28;;;19.02
53667;BMP280;39568;51.026;5.468;2022-07-21T06:14:14;101084.84;;;19.13
53667;BMP280;39568;51.026;5.468;2022-07-21T06:16:49;101093.16;;;19.15
53667;BMP280;39568;51.026;5.468;2022-07-21T06:19:17;101096.53;;;19.15
53667;BMP280;39568;51.026;5.468;2022-07-21T06:21:44;101098.91;;;19.26
53667;BMP280;39568;51.026;5.468;2022-07-21T06:24:11;101095.84;;;19.22
53667;BMP280;39568;51.026;5.468;2022-07-21T06:26:39;101096.19;;;19.26
53667;BMP280;39568;51.026;5.468;2022-07-21T06:29:07;101091.91;;;19.46
53667;BMP280;39568;51.026;5.468;2022-07-21T06:31:35;101093.69;;;19.44
53667;BMP280;39568;51.026;5.468;2022-07-21T06:34:02;101096.75;;;19.55
53667;BMP280;39568;51.026;5.468;2022-07-21T06:36:34;101108.59;;;19.52
53667;BMP280;39568;51.026;5.468;2022-07-21T06:39:01;101111.66;;;19.56
53667;BMP280;39568;51.026;5.468;2022-07-21T06:41:28;101113.13;;;19.57
53667;BMP280;39568;51.026;5.468;2022-07-21T06:44:01;101115.28;;;19.44
53667;BMP280;39568;51.026;5.468;2022-07-21T06:46:34;101111.31;;;19.37
53667;BMP280;39568;51.026;5.468;2022-07-21T06:49:00;101110.94;;;19.56
53667;BMP280;39568;51.026;5.468;2022-07-21T06:51:34;101119.94;;;19.51
53667;BMP280;39568;51.026;5.468;2022-07-21T06:54:09;101098.38;;;19.66
53667;BMP280;39568;51.026;5.468;2022-07-21T06:56:36;101125.72;;;19.62
53667;BMP280;39568;51.026;5.468;2022-07-21T06:59:08;101125.72;;;19.40
53667;BMP280;39568;51.026;5.468;2022-07-21T07:01:34;101127.50;;;19.45
53667;BMP280;39568;51.026;5.468;2022-07-21T07:04:01;101120.69;;;19.44
53667;BMP280;39568;51.026;5.468;2022-07-21T07:06:31;101117.63;;;19.40
53667;BMP280;39568;51.026;5.468;2022-07-21T07:08:57;101107.00;;;19.26
53667;BMP280;39568;51.026;5.468;2022-07-21T07:11:24;101125.38;;;19.28
53667;BMP280;39568;51.026;5.468;2022-07-21T07:13:56;101126.09;;;19.36
53667;BMP280;39568;51.026;5.468;2022-07-21T07:16:28;101123.38;;;19.44
53667;BMP280;39568;51.026;5.468;2022-07-21T07:18:54;101127.50;;;19.52
53667;BMP280;39568;51.026;5.468;2022-07-21T07:21:24;101119.94;;;19.51
53667;BMP280;39568;51.026;5.468;2022-07-21T07:23:52;101125.00;;;19.47
53667;BMP280;39568;51.026;5.468;2022-07-21T07:26:18;101117.44;;;19.53
53667;BMP280;39568;51.026;5.468;2022-07-21T07:28:47;101122.09;;;19.29
53667;BMP280;39568;51.026;5.468;2022-07-21T07:31:15;101125.00;;;19.39
53667;BMP280;39568;51.026;5.468;2022-07-21T07:33:44;101123.91;;;19.42
53667;BMP280;39568;51.026;5.468;2022-07-21T07:36:10;101119.97;;;19.43
53667;BMP280;39568;51.026;5.468;2022-07-21T07:38:41;101118.91;;;19.46
53667;BMP280;39568;51.026;5.468;2022-07-21T07:41:08;101122.13;;;19.45
53667;BMP280;39568;51.026;5.468;2022-07-21T07:43:35;101128.06;;;19.36
53667;BMP280;39568;51.026;5.468;2022-07-21T07:46:02;101129.09;;;19.25
53667;BMP280;39568;51.026;5.468;2022-07-21T07:48:30;101112.00;;;19.07
53667;BMP280;39568;51.026;5.468;2022-07-21T07:51:01;101133.50;;;18.77
53667;BMP280;39568;51.026;5.468;2022-07-21T07:53:35;101121.97;;;18.69
53667;BMP280;39568;51.026;5.468;2022-07-21T07:56:02;101129.09;;;18.59
53667;BMP280;39568;51.026;5.468;2022-07-21T07:58:31;101121.16;;;18.46
53667;BMP280;39568;51.026;5.468;2022-07-21T08:00:58;101125.44;;;18.41
53667;BMP280;39568;51.026;5.468;2022-07-21T08:03:29;101129.72;;;18.37
53667;BMP280;39568;51.026;5.468;2022-07-21T08:05:57;101136.94;;;18.42
53667;BMP280;39568;51.026;5.468;2022-07-21T08:08:34;101137.28;;;18.38
53667;BMP280;39568;51.026;5.468;2022-07-21T08:11:02;101126.66;;;18.33
53667;BMP280;39568;51.026;5.468;2022-07-21T08:13:29;101131.19;;;18.38
53667;BMP280;39568;51.026;5.468;2022-07-21T08:16:00;101122.84;;;18.28
53667;BMP280;39568;51.026;5.468;2022-07-21T08:18:28;101127.53;;;18.35
53667;BMP280;39568;51.026;5.468;2022-07-21T08:20:55;101124.13;;;18.35
53667;BMP280;39568;51.026;5.468;2022-07-21T08:23:32;101134.72;;;18.33
53667;BMP280;39568;51.026;5.468;2022-07-21T08:25:58;101135.78;;;18.30
53667;BMP280;39568;51.026;5.468;2022-07-21T08:28:26;101133.16;;;18.37
53667;BMP280;39568;51.026;5.468;2022-07-21T08:30:55;101129.47;;;18.27
53667;BMP280;39568;51.026;5.468;2022-07-21T08:33:21;101135.59;;;18.28
53667;BMP280;39568;51.026;5.468;2022-07-21T08:35:49;101126.66;;;18.33
53667;BMP280;39568;51.026;5.468;2022-07-21T08:38:16;101136.16;;;18.34
53667;BMP280;39568;51.026;5.468;2022-07-21T08:40:46;101138.28;;;18.28
53667;BMP280;39568;51.026;5.468;2022-07-21T08:43:13;101142.81;;;18.33
53667;BMP280;39568;51.026;5.468;2022-07-21T08:45:41;101137.97;;;18.39
53667;BMP280;39568;51.026;5.468;2022-07-21T08:48:08;101136.94;;;18.42
53667;BMP280;39568;51.026;5.468;2022-07-21T08:50:36;101140.19;;;18.48
53667;BMP280;39568;51.026;5.468;2022-07-21T08:53:07;101131.50;;;18.34
53667;BMP280;39568;51.026;5.468;2022-07-21T08:55:35;101134.91;;;18.35
53667;BMP280;39568;51.026;5.468;2022-07-21T08:58:10;101139.81;;;18.44
53667;BMP280;39568;51.026;5.468;2022-07-21T09:00:39;101137.66;;;18.42
53667;BMP280;39568;51.026;5.468;2022-07-21T09:03:20;101146.84;;;18.47
53667;BMP280;39568;51.026;5.468;2022-07-21T09:06:02;101138.41;;;18.50
53667;BMP280;39568;51.026;5.468;2022-07-21T09:08:31;101130.84;;;18.49
53667;BMP280;39568;51.026;5.468;2022-07-21T09:11:14;101140.72;;;18.46
53667;BMP280;39568;51.026;5.468;2022-07-21T09:13:47;101143.22;;;18.44
53667;BMP280;39568;51.026;5.468;2022-07-21T09:16:32;101140.88;;;18.41
53667;BMP280;39568;51.026;5.468;2022-07-21T09:18:59;101141.59;;;18.41
53667;BMP280;39568;51.026;5.468;2022-07-21T09:21:25;101144.47;;;18.43
53667;BMP280;39568;51.026;5.468;2022-07-21T09:23:52;101142.75;;;18.54
53667;BMP280;39568;51.026;5.468;2022-07-21T09:26:21;101147.00;;;18.41
53667;BMP280;39568;51.026;5.468;2022-07-21T09:28:51;101152.03;;;18.45
53667;BMP280;39568;51.026;5.468;2022-07-21T09:31:20;101151.28;;;18.37
53667;BMP280;39568;51.026;5.468;2022-07-21T09:33:47;101152.66;;;18.30
53667;BMP280;39568;51.026;5.468;2022-07-21T09:36:15;101154.31;;;18.33
53667;BMP280;39568;51.026;5.468;2022-07-21T09:38:50;101149.47;;;18.39
53667;BMP280;39568;51.026;5.468;2022-07-21T09:41:26;101140.88;;;18.41
53667;BMP280;39568;51.026;5.468;2022-07-21T09:43:57;101152.03;;;18.45
53667;BMP280;39568;51.026;5.468;2022-07-21T09:46:25;101153.13;;;18.42
53667;BMP280;39568;51.026;5.468;2022-07-21T09:48:55;101157.34;;;18.30
53667;BMP280;39568;51.026;5.468;2022-07-21T09:51:27;101165.94;;;18.28
53667;BMP280;39568;51.026;5.468;2022-07-21T09:53:59;101163.75;;;18.27
53667;BMP280;39568;51.026;5.468;2022-07-21T09:56:30;101160.88;;;18.25
53667;BMP280;39568;51.026;5.468;2022-07-21T09:59:03;101159.09;;;18.27
53667;BMP280;39568;51.026;5.468;2022-07-21T10:01:30;101155.00;;;18.26
53667;BMP280;39568;51.026;5.468;2022-07-21T10:03:59;101154.44;;;18.28
53667;BMP280;39568;51.026;5.468;2022-07-21T10:06:30;101160.50;;;18.21
53667;BMP280;39568;51.026;5.468;2022-07-21T10:08:58;101165.16;;;18.20
53667;BMP280;39568;51.026;5.468;2022-07-21T10:11:27;101170.16;;;18.16
53667;BMP280;39568;51.026;5.468;2022-07-21T10:13:54;101168.31;;;18.11
53667;BMP280;39568;51.026;5.468;2022-07-21T10:16:23;101180.03;;;18.14
53667;BMP280;39568;51.026;5.468;2022-07-21T10:18:58;101177.91;;;18.20
53667;BMP280;39568;51.026;5.468;2022-07-21T10:21:35;101183.13;;;18.18
53667;BMP280;39568;51.026;5.468;2022-07-21T10:24:03;101173.97;;;18.21
53667;BMP280;39568;51.026;5.468;2022-07-21T10:26:31;101181.31;;;18.20
53667;BMP280;39568;51.026;5.468;2022-07-21T10:28:57;101172.00;;;18.21
53667;BMP280;39568;51.026;5.468;2022-07-21T10:31:25;101171.16;;;18.26
53667;BMP280;39568;51.026;5.468;2022-07-21T10:33:55;101171.66;;;18.25
53667;BMP280;39568;51.026;5.468;2022-07-21T10:36:41;101179.56;;;18.23
53667;BMP280;39568;51.026;5.468;2022-07-21T10:39:20;101185.81;;;18.18
53667;BMP280;39568;51.026;5.468;2022-07-21T10:41:49;101188.66;;;18.20
53667;BMP280;39568;51.026;5.468;2022-07-21T10:44:38;101201.81;;;18.23
53667;BMP280;39568;51.026;5.468;2022-07-21T10:47:08;101204.66;;;18.18
53667;BMP280;39568;51.026;5.468;2022-07-21T10:49:51;101203.66;;;18.08
53667;BMP280;39568;51.026;5.468;2022-07-21T10:52:56;101196.66;;;18.05
53667;BMP280;39568;51.026;5.468;2022-07-21T10:55:24;101201.84;;;18.03
53667;BMP280;39568;51.026;5.468;2022-07-21T10:58:25;101203.09;;;18.02
53667;BMP280;39568;51.026;5.468;2022-07-21T11:00:53;101200.59;;;18.04
53667;BMP280;39568;51.026;5.468;2022-07-21T11:03:27;101200.63;;;18.11
53667;BMP280;39568;51.026;5.468;2022-07-21T11:06:19;101219.00;;;18.13
53667;BMP280;39568;51.026;5.468;2022-07-21T11:08:50;101214.72;;;18.17
53667;BMP280;39568;51.026;5.468;2022-07-21T11:11:20;101211.75;;;18.28
53667;BMP280;39568;51.026;5.468;2022-07-21T11:14:02;101211.06;;;18.35
53667;BMP280;39568;51.026;5.468;2022-07-21T11:19:28;101211.56;;;18.62
53667;BMP280;39568;51.026;5.468;2022-07-21T11:21:57;101205.47;;;18.62
53667;BMP280;39568;51.026;5.468;2022-07-21T11:24:26;101219.19;;;18.71
53667;BMP280;39568;51.026;5.468;2022-07-21T11:26:54;101211.75;;;18.92
53667;BMP280;39568;51.026;5.468;2022-07-21T11:29:24;101205.16;;;19.08
53667;BMP280;39568;51.026;5.468;2022-07-21T11:31:52;101212.38;;;19.21
53667;BMP280;39568;51.026;5.468;2022-07-21T11:34:20;101213.03;;;19.06
53667;BMP280;39568;51.026;5.468;2022-07-21T11:36:59;101219.22;;;19.14
53667;BMP280;39568;51.026;5.468;2022-07-21T11:39:26;101219.44;;;19.32
53667;BMP280;39568;51.026;5.468;2022-07-21T11:42:02;101224.09;;;19.31
53667;BMP280;39568;51.026;5.468;2022-07-21T11:44:31;101215.50;;;19.48
53667;BMP280;39568;51.026;5.468;2022-07-21T11:47:02;101218.41;;;19.80
53667;BMP280;39568;51.026;5.468;2022-07-21T11:49:33;101215.53;;;19.70
53667;BMP280;39568;51.026;5.468;2022-07-21T11:52:04;101220.72;;;19.46
53667;BMP280;39568;51.026;5.468;2022-07-21T11:54:33;101220.31;;;19.26
53667;BMP280;39568;51.026;5.468;2022-07-21T11:57:04;101218.00;;;19.30
53667;BMP280;39568;51.026;5.468;2022-07-21T11:59:34;101216.50;;;19.14
53667;BMP280;39568;51.026;5.468;2022-07-21T12:02:04;101219.69;;;19.05
53667;BMP280;39568;51.026;5.468;2022-07-21T12:04:42;101221.84;;;18.99
53667;BMP280;39568;51.026;5.468;2022-07-21T12:07:17;101218.50;;;18.78
53667;BMP280;39568;51.026;5.468;2022-07-21T12:09:47;101219.38;;;18.66
53667;BMP280;39568;51.026;5.468;2022-07-21T12:12:27;101230.22;;;18.52
53667;BMP280;39568;51.026;5.468;2022-07-21T12:14:57;101237.56;;;18.24
53667;BMP280;39568;51.026;5.468;2022-07-21T12:17:35;101235.66;;;18.11
53667;BMP280;39568;51.026;5.468;2022-07-21T12:20:04;101242.84;;;18.09
53667;BMP280;39568;51.026;5.468;2022-07-21T12:22:37;101243.28;;;18.00
53667;BMP280;39568;51.026;5.468;2022-07-21T12:25:05;101248.88;;;18.02
53667;BMP280;39568;51.026;5.468;2022-07-21T12:27:35;101247.50;;;18.08
53667;BMP280;39568;51.026;5.468;2022-07-21T12:30:08;101249.63;;;18.23
53667;BMP280;39568;51.026;5.468;2022-07-21T12:32:47;101254.78;;;18.21
53667;BMP280;39568;51.026;5.468;2022-07-21T12:35:33;101250.00;;;18.55
53667;BMP280;39568;51.026;5.468;2022-07-21T12:38:11;101258.63;;;18.89
53667;BMP280;39568;51.026;5.468;2022-07-21T12:40:42;101252.38;;;18.94
53667;BMP280;39568;51.026;5.468;2022-07-21T12:43:11;101266.06;;;18.96
53667;BMP280;39568;51.026;5.468;2022-07-21T12:45:50;101254.75;;;19.05
53667;BMP280;39568;51.026;5.468;2022-07-21T12:48:19;101272.38;;;19.06
53667;BMP280;39568;51.026;5.468;2022-07-21T12:51:04;101266.94;;;18.91
53667;BMP280;39568;51.026;5.468;2022-07-21T12:53:33;101268.34;;;18.85
53667;BMP280;39568;51.026;5.468;2022-07-21T12:56:01;101275.91;;;18.94
53667;BMP280;39568;51.026;5.468;2022-07-21T12:58:28;101269.84;;;18.65
53667;BMP280;39568;51.026;5.468;2022-07-21T13:01:02;101272.94;;;18.69
53667;BMP280;39568;51.026;5.468;2022-07-21T13:03:30;101282.91;;;18.61
53667;BMP280;39568;51.026;5.468;2022-07-21T13:06:00;101283.66;;;18.62
53667;BMP280;39568;51.026;5.468;2022-07-21T13:08:29;101276.88;;;18.47
53667;BMP280;39568;51.026;5.468;2022-07-21T13:10:57;101270.06;;;18.46
53667;BMP280;39568;51.026;5.468;2022-07-21T13:13:25;101274.03;;;18.45
53667;BMP280;39568;51.026;5.468;2022-07-21T13:15:51;101274.44;;;18.29
53667;BMP280;39568;51.026;5.468;2022-07-21T13:18:18;101279.91;;;18.44
53667;BMP280;39568;51.026;5.468;2022-07-21T13:20:45;101282.63;;;18.23
53667;BMP280;39568;51.026;5.468;2022-07-21T13:23:12;101288.06;;;18.31
53667;BMP280;39568;51.026;5.468;2022-07-21T13:25:38;101285.22;;;18.29
53667;BMP280;39568;51.026;5.468;2022-07-21T13:28:06;101281.66;;;18.34
53667;BMP280;39568;51.026;5.468;2022-07-21T13:30:35;101290.91;;;18.46
53667;BMP280;39568;51.026;5.468;2022-07-21T13:33:02;101293.84;;;18.56
53667;BMP280;39568;51.026;5.468;2022-07-21T13:35:30;101292.72;;;18.51
53667;BMP280;39568;51.026;5.468;2022-07-21T13:37:58;101293.00;;;18.40
53667;BMP280;39568;51.026;5.468;2022-07-21T13:40:26;101298.63;;;18.42
53667;BMP280;39568;51.026;5.468;2022-07-21T13:42:54;101295.84;;;18.34
53667;BMP280;39568;51.026;5.468;2022-07-21T13:45:23;101296.69;;;18.29
53667;BMP280;39568;51.026;5.468;2022-07-21T13:47:52;101297.31;;;18.43
53667;BMP280;39568;51.026;5.468;2022-07-21T13:50:19;101291.88;;;18.56
53667;BMP280;39568;51.026;5.468;2022-07-21T13:52:49;101288.16;;;18.67
53667;BMP280;39568;51.026;5.468;2022-07-21T13:55:17;101295.84;;;18.63
53667;BMP280;39568;51.026;5.468;2022-07-21T13:57:48;101301.84;;;18.69
53667;BMP280;39568;51.026;5.468;2022-07-21T14:00:16;101296.97;;;18.67
53667;BMP280;39568;51.026;5.468;2022-07-21T14:02:44;101295.34;;;18.64
53667;BMP280;39568;51.026;5.468;2022-07-21T14:05:15;101298.03;;;18.64
53667;BMP280;39568;51.026;5.468;2022-07-21T14:07:41;101300.13;;;18.58
53667;BMP280;39568;51.026;5.468;2022-07-21T14:10:12;101300.13;;;18.58
53667;BMP280;39568;51.026;5.468;2022-07-21T14:12:41;101306.03;;;18.49